sensor_id;sensor_type;location;lat;lon;timestamp;P1;durP1;ratioP1;P2;durP2;ratioP2
59434;SDS011;45241;49.768;8.636;2024-01-30T00:00:58;19.48;;;10.38;;
59434;SDS011;45241;49.768;8.636;2024-01-30T00:03:24;18.50;;;10.07;;
59434;SDS011;45241;49.768;8.636;2024-01-30T00:05:49;21.75;;;12.00;;
59434;SDS011;45241;49.768;8.636;2024-01-30T00:08:14;26.27;;;14.93;;
59434;SDS011;45241;49.768;8.636;2024-01-30T00:10:39;25.35;;;14.07;;
59434;SDS011;45241;49.768;8.636;2024-01-30T00:13:05;26.80;;;14.32;;
59434;SDS011;45241;49.768;8.636;2024-01-30T00:15:30;26.90;;;14.70;;
59434;SDS011;45241;49.768;8.636;2024-01-30T00:17:56;29.52;;;14.95;;
59434;SDS011;45241;49.768;8.636;2024-01-30T00:20:21;25.05;;;13.52;;
59434;SDS011;45241;49.768;8.636;2024-01-30T00:22:47;24.33;;;12.80;;
59434;SDS011;45241;49.768;8.636;2024-01-30T00:25:12;18.70;;;11.23;;
59434;SDS011;45241;49.768;8.636;2024-01-30T00:27:38;20.63;;;11.82;;
59434;SDS011;45241;49.768;8.636;2024-01-30T00:30:03;19.10;;;11.45;;
59434;SDS011;45241;49.768;8.636;2024-01-30T00:32:29;20.98;;;11.40;;
59434;SDS011;45241;49.768;8.636;2024-01-30T00:34:55;23.25;;;13.80;;
59434;SDS011;45241;49.768;8.636;2024-01-30T00:37:20;21.13;;;13.00;;
59434;SDS011;45241;49.768;8.636;2024-01-30T00:39:45;24.73;;;14.70;;
59434;SDS011;45241;49.768;8.636;2024-01-30T00:42:12;26.83;;;14.90;;
59434;SDS011;45241;49.768;8.636;2024-01-30T00:44:37;31.05;;;16.80;;
59434;SDS011;45241;49.768;8.636;2024-01-30T00:47:03;27.42;;;14.90;;
59434;SDS011;45241;49.768;8.636;2024-01-30T00:49:29;26.85;;;15.50;;
59434;SDS011;45241;49.768;8.636;2024-01-30T00:51:54;31.25;;;16.40;;
59434;SDS011;45241;49.768;8.636;2024-01-30T00:54:20;28.25;;;15.82;;
59434;SDS011;45241;49.768;8.636;2024-01-30T00:56:45;27.08;;;15.15;;
59434;SDS011;45241;49.768;8.636;2024-01-30T00:59:11;28.05;;;14.90;;
59434;SDS011;45241;49.768;8.636;2024-01-30T01:01:36;22.75;;;13.35;;
59434;SDS011;45241;49.768;8.636;2024-01-30T01:04:01;25.60;;;14.05;;
59434;SDS011;45241;49.768;8.636;2024-01-30T01:06:27;23.33;;;13.70;;
59434;SDS011;45241;49.768;8.636;2024-01-30T01:08:52;27.08;;;14.43;;
59434;SDS011;45241;49.768;8.636;2024-01-30T01:11:17;21.73;;;12.40;;
59434;SDS011;45241;49.768;8.636;2024-01-30T01:13:43;20.17;;;12.30;;
59434;SDS011;45241;49.768;8.636;2024-01-30T01:16:08;20.33;;;12.57;;
59434;SDS011;45241;49.768;8.636;2024-01-30T01:18:33;24.45;;;14.38;;
59434;SDS011;45241;49.768;8.636;2024-01-30T01:20:59;19.05;;;12.02;;
59434;SDS011;45241;49.768;8.636;2024-01-30T01:23:25;19.90;;;11.75;;
59434;SDS011;45241;49.768;8.636;2024-01-30T01:25:50;19.15;;;10.82;;
59434;SDS011;45241;49.768;8.636;2024-01-30T01:28:15;21.52;;;11.35;;
59434;SDS011;45241;49.768;8.636;2024-01-30T01:30:41;17.23;;;11.05;;
59434;SDS011;45241;49.768;8.636;2024-01-30T01:33:06;22.77;;;12.40;;
59434;SDS011;45241;49.768;8.636;2024-01-30T01:35:32;19.98;;;10.73;;
59434;SDS011;45241;49.768;8.636;2024-01-30T01:37:57;18.75;;;10.95;;
59434;SDS011;45241;49.768;8.636;2024-01-30T01:40:25;17.98;;;10.57;;
59434;SDS011;45241;49.768;8.636;2024-01-30T01:42:51;19.33;;;11.75;;
59434;SDS011;45241;49.768;8.636;2024-01-30T01:45:18;16.75;;;9.98;;
59434;SDS011;45241;49.768;8.636;2024-01-30T01:47:44;16.73;;;10.60;;
59434;SDS011;45241;49.768;8.636;2024-01-30T01:50:12;16.05;;;11.00;;
59434;SDS011;45241;49.768;8.636;2024-01-30T01:52:39;17.60;;;11.50;;
59434;SDS011;45241;49.768;8.636;2024-01-30T01:55:06;17.60;;;11.07;;
59434;SDS011;45241;49.768;8.636;2024-01-30T01:57:33;19.20;;;11.68;;
59434;SDS011;45241;49.768;8.636;2024-01-30T01:59:58;17.70;;;11.07;;
59434;SDS011;45241;49.768;8.636;2024-01-30T02:02:25;15.68;;;9.80;;
59434;SDS011;45241;49.768;8.636;2024-01-30T02:04:52;15.70;;;10.38;;
59434;SDS011;45241;49.768;8.636;2024-01-30T02:07:18;14.55;;;9.60;;
59434;SDS011;45241;49.768;8.636;2024-01-30T02:09:43;16.20;;;10.20;;
59434;SDS011;45241;49.768;8.636;2024-01-30T02:12:08;14.90;;;9.48;;
59434;SDS011;45241;49.768;8.636;2024-01-30T02:14:43;17.02;;;10.35;;
59434;SDS011;45241;49.768;8.636;2024-01-30T02:17:09;14.75;;;9.82;;
59434;SDS011;45241;49.768;8.636;2024-01-30T02:19:34;16.70;;;10.27;;
59434;SDS011;45241;49.768;8.636;2024-01-30T02:22:00;15.43;;;10.82;;
59434;SDS011;45241;49.768;8.636;2024-01-30T02:24:25;15.98;;;10.02;;
59434;SDS011;45241;49.768;8.636;2024-01-30T02:26:50;19.65;;;10.48;;
59434;SDS011;45241;49.768;8.636;2024-01-30T02:29:16;16.30;;;10.43;;
59434;SDS011;45241;49.768;8.636;2024-01-30T02:31:41;13.20;;;9.68;;
59434;SDS011;45241;49.768;8.636;2024-01-30T02:34:06;17.60;;;10.38;;
59434;SDS011;45241;49.768;8.636;2024-01-30T02:36:32;15.93;;;9.85;;
59434;SDS011;45241;49.768;8.636;2024-01-30T02:38:57;16.33;;;10.02;;
59434;SDS011;45241;49.768;8.636;2024-01-30T02:41:22;15.68;;;9.90;;
59434;SDS011;45241;49.768;8.636;2024-01-30T02:43:47;14.93;;;9.35;;
59434;SDS011;45241;49.768;8.636;2024-01-30T02:46:13;15.25;;;9.50;;
59434;SDS011;45241;49.768;8.636;2024-01-30T02:48:38;14.18;;;9.02;;
59434;SDS011;45241;49.768;8.636;2024-01-30T02:51:04;14.07;;;9.20;;
59434;SDS011;45241;49.768;8.636;2024-01-30T02:53:29;13.80;;;9.02;;
59434;SDS011;45241;49.768;8.636;2024-01-30T02:55:54;14.27;;;9.13;;
59434;SDS011;45241;49.768;8.636;2024-01-30T02:58:19;14.60;;;9.60;;
59434;SDS011;45241;49.768;8.636;2024-01-30T03:00:45;16.00;;;9.15;;
59434;SDS011;45241;49.768;8.636;2024-01-30T03:03:10;15.50;;;9.70;;
59434;SDS011;45241;49.768;8.636;2024-01-30T03:05:36;14.13;;;8.90;;
59434;SDS011;45241;49.768;8.636;2024-01-30T03:08:01;13.75;;;8.65;;
59434;SDS011;45241;49.768;8.636;2024-01-30T03:10:26;14.15;;;9.23;;
59434;SDS011;45241;49.768;8.636;2024-01-30T03:12:51;14.73;;;9.55;;
59434;SDS011;45241;49.768;8.636;2024-01-30T03:15:17;15.20;;;9.65;;
59434;SDS011;45241;49.768;8.636;2024-01-30T03:17:42;16.85;;;10.23;;
59434;SDS011;45241;49.768;8.636;2024-01-30T03:20:07;15.48;;;9.27;;
59434;SDS011;45241;49.768;8.636;2024-01-30T03:22:34;18.40;;;10.73;;
59434;SDS011;45241;49.768;8.636;2024-01-30T03:24:59;14.38;;;9.68;;
59434;SDS011;45241;49.768;8.636;2024-01-30T03:27:24;16.48;;;9.93;;
59434;SDS011;45241;49.768;8.636;2024-01-30T03:29:49;17.10;;;10.15;;
59434;SDS011;45241;49.768;8.636;2024-01-30T03:32:15;17.48;;;10.50;;
59434;SDS011;45241;49.768;8.636;2024-01-30T03:34:40;16.98;;;10.15;;
59434;SDS011;45241;49.768;8.636;2024-01-30T03:37:05;14.20;;;10.18;;
59434;SDS011;45241;49.768;8.636;2024-01-30T03:39:30;15.85;;;10.30;;
59434;SDS011;45241;49.768;8.636;2024-01-30T03:41:56;16.23;;;9.63;;
59434;SDS011;45241;49.768;8.636;2024-01-30T03:44:21;15.27;;;10.13;;
59434;SDS011;45241;49.768;8.636;2024-01-30T03:46:46;17.38;;;10.15;;
59434;SDS011;45241;49.768;8.636;2024-01-30T03:49:12;18.77;;;10.65;;
59434;SDS011;45241;49.768;8.636;2024-01-30T03:51:37;18.55;;;11.65;;
59434;SDS011;45241;49.768;8.636;2024-01-30T03:54:02;20.55;;;12.60;;
59434;SDS011;45241;49.768;8.636;2024-01-30T03:56:27;16.85;;;11.63;;
59434;SDS011;45241;49.768;8.636;2024-01-30T03:58:53;16.58;;;10.77;;
59434;SDS011;45241;49.768;8.636;2024-01-30T04:01:18;17.65;;;11.18;;
59434;SDS011;45241;49.768;8.636;2024-01-30T04:03:44;17.40;;;11.07;;
59434;SDS011;45241;49.768;8.636;2024-01-30T04:06:09;17.60;;;10.98;;
59434;SDS011;45241;49.768;8.636;2024-01-30T04:08:35;16.05;;;9.98;;
59434;SDS011;45241;49.768;8.636;2024-01-30T04:11:06;20.83;;;11.25;;
59434;SDS011;45241;49.768;8.636;2024-01-30T04:13:32;15.40;;;9.68;;
59434;SDS011;45241;49.768;8.636;2024-01-30T04:16:01;16.75;;;10.60;;
59434;SDS011;45241;49.768;8.636;2024-01-30T04:18:27;16.90;;;10.70;;
59434;SDS011;45241;49.768;8.636;2024-01-30T04:20:53;15.40;;;10.13;;
59434;SDS011;45241;49.768;8.636;2024-01-30T04:23:19;15.05;;;10.38;;
59434;SDS011;45241;49.768;8.636;2024-01-30T04:25:44;16.05;;;10.35;;
59434;SDS011;45241;49.768;8.636;2024-01-30T04:28:10;17.00;;;10.68;;
59434;SDS011;45241;49.768;8.636;2024-01-30T04:30:38;15.43;;;10.10;;
59434;SDS011;45241;49.768;8.636;2024-01-30T04:33:04;18.80;;;10.20;;
59434;SDS011;45241;49.768;8.636;2024-01-30T04:35:30;17.38;;;10.20;;
59434;SDS011;45241;49.768;8.636;2024-01-30T04:37:55;16.63;;;11.02;;
59434;SDS011;45241;49.768;8.636;2024-01-30T04:40:21;17.20;;;11.20;;
59434;SDS011;45241;49.768;8.636;2024-01-30T04:42:46;19.05;;;11.68;;
59434;SDS011;45241;49.768;8.636;2024-01-30T04:45:12;17.02;;;11.40;;
59434;SDS011;45241;49.768;8.636;2024-01-30T04:47:37;17.42;;;11.43;;
59434;SDS011;45241;49.768;8.636;2024-01-30T04:50:04;19.00;;;11.75;;
59434;SDS011;45241;49.768;8.636;2024-01-30T04:52:32;20.05;;;13.02;;
59434;SDS011;45241;49.768;8.636;2024-01-30T04:54:58;17.42;;;13.00;;
59434;SDS011;45241;49.768;8.636;2024-01-30T04:57:23;20.48;;;13.52;;
59434;SDS011;45241;49.768;8.636;2024-01-30T04:59:48;20.95;;;13.48;;
59434;SDS011;45241;49.768;8.636;2024-01-30T05:02:14;21.08;;;13.55;;
59434;SDS011;45241;49.768;8.636;2024-01-30T05:04:40;20.60;;;13.88;;
59434;SDS011;45241;49.768;8.636;2024-01-30T05:07:06;17.95;;;13.10;;
59434;SDS011;45241;49.768;8.636;2024-01-30T05:09:31;17.60;;;12.85;;
59434;SDS011;45241;49.768;8.636;2024-01-30T05:11:57;17.65;;;13.20;;
59434;SDS011;45241;49.768;8.636;2024-01-30T05:14:23;19.75;;;13.52;;
59434;SDS011;45241;49.768;8.636;2024-01-30T05:16:48;19.77;;;12.30;;
59434;SDS011;45241;49.768;8.636;2024-01-30T05:19:14;19.60;;;12.60;;
59434;SDS011;45241;49.768;8.636;2024-01-30T05:21:39;17.10;;;11.85;;
59434;SDS011;45241;49.768;8.636;2024-01-30T05:24:05;17.27;;;12.40;;
59434;SDS011;45241;49.768;8.636;2024-01-30T05:26:30;17.00;;;11.80;;
59434;SDS011;45241;49.768;8.636;2024-01-30T05:28:56;17.50;;;12.00;;
59434;SDS011;45241;49.768;8.636;2024-01-30T05:31:22;18.42;;;12.82;;
59434;SDS011;45241;49.768;8.636;2024-01-30T05:33:47;19.58;;;12.77;;
59434;SDS011;45241;49.768;8.636;2024-01-30T05:36:12;19.75;;;12.32;;
59434;SDS011;45241;49.768;8.636;2024-01-30T05:38:40;18.80;;;12.68;;
59434;SDS011;45241;49.768;8.636;2024-01-30T05:41:06;20.95;;;13.75;;
59434;SDS011;45241;49.768;8.636;2024-01-30T05:43:31;18.52;;;13.02;;
59434;SDS011;45241;49.768;8.636;2024-01-30T05:45:56;21.83;;;14.52;;
59434;SDS011;45241;49.768;8.636;2024-01-30T05:48:21;19.88;;;12.48;;
59434;SDS011;45241;49.768;8.636;2024-01-30T05:50:47;18.67;;;13.30;;
59434;SDS011;45241;49.768;8.636;2024-01-30T05:53:12;17.30;;;12.40;;
59434;SDS011;45241;49.768;8.636;2024-01-30T05:55:37;17.05;;;13.10;;
59434;SDS011;45241;49.768;8.636;2024-01-30T05:58:03;19.65;;;13.23;;
59434;SDS011;45241;49.768;8.636;2024-01-30T06:00:28;19.15;;;12.68;;
59434;SDS011;45241;49.768;8.636;2024-01-30T06:02:54;17.70;;;12.30;;
59434;SDS011;45241;49.768;8.636;2024-01-30T06:05:19;20.35;;;12.00;;
59434;SDS011;45241;49.768;8.636;2024-01-30T06:07:45;21.63;;;13.10;;
59434;SDS011;45241;49.768;8.636;2024-01-30T06:10:10;20.77;;;14.57;;
59434;SDS011;45241;49.768;8.636;2024-01-30T06:12:35;18.45;;;13.68;;
59434;SDS011;45241;49.768;8.636;2024-01-30T06:15:01;27.52;;;15.95;;
59434;SDS011;45241;49.768;8.636;2024-01-30T06:17:26;22.15;;;12.95;;
59434;SDS011;45241;49.768;8.636;2024-01-30T06:19:52;21.15;;;14.02;;
59434;SDS011;45241;49.768;8.636;2024-01-30T06:22:18;18.42;;;13.80;;
59434;SDS011;45241;49.768;8.636;2024-01-30T06:24:43;21.02;;;13.55;;
59434;SDS011;45241;49.768;8.636;2024-01-30T06:27:10;31.17;;;17.85;;
59434;SDS011;45241;49.768;8.636;2024-01-30T06:29:35;22.25;;;14.68;;
59434;SDS011;45241;49.768;8.636;2024-01-30T06:32:00;21.05;;;14.13;;
59434;SDS011;45241;49.768;8.636;2024-01-30T06:34:26;19.02;;;13.35;;
59434;SDS011;45241;49.768;8.636;2024-01-30T06:36:51;18.73;;;12.13;;
59434;SDS011;45241;49.768;8.636;2024-01-30T06:39:17;20.58;;;13.93;;
59434;SDS011;45241;49.768;8.636;2024-01-30T06:41:42;18.23;;;12.20;;
59434;SDS011;45241;49.768;8.636;2024-01-30T06:44:07;19.95;;;12.70;;
59434;SDS011;45241;49.768;8.636;2024-01-30T06:46:33;22.13;;;14.55;;
59434;SDS011;45241;49.768;8.636;2024-01-30T06:48:59;23.20;;;14.80;;
59434;SDS011;45241;49.768;8.636;2024-01-30T06:51:24;22.35;;;15.38;;
59434;SDS011;45241;49.768;8.636;2024-01-30T06:53:49;20.38;;;14.60;;
59434;SDS011;45241;49.768;8.636;2024-01-30T06:56:15;24.27;;;15.35;;
59434;SDS011;45241;49.768;8.636;2024-01-30T06:58:41;22.95;;;13.98;;
59434;SDS011;45241;49.768;8.636;2024-01-30T07:01:07;23.30;;;15.63;;
59434;SDS011;45241;49.768;8.636;2024-01-30T07:03:32;23.92;;;15.02;;
59434;SDS011;45241;49.768;8.636;2024-01-30T07:05:57;21.23;;;15.63;;
59434;SDS011;45241;49.768;8.636;2024-01-30T07:08:23;23.25;;;15.50;;
59434;SDS011;45241;49.768;8.636;2024-01-30T07:10:48;22.02;;;14.38;;
59434;SDS011;45241;49.768;8.636;2024-01-30T07:13:13;21.35;;;14.75;;
59434;SDS011;45241;49.768;8.636;2024-01-30T07:15:41;24.52;;;15.02;;
59434;SDS011;45241;49.768;8.636;2024-01-30T07:18:07;23.13;;;15.10;;
59434;SDS011;45241;49.768;8.636;2024-01-30T07:20:32;19.70;;;14.43;;
59434;SDS011;45241;49.768;8.636;2024-01-30T07:22:58;24.27;;;14.85;;
59434;SDS011;45241;49.768;8.636;2024-01-30T07:25:24;20.75;;;14.70;;
59434;SDS011;45241;49.768;8.636;2024-01-30T07:27:55;22.70;;;14.48;;
59434;SDS011;45241;49.768;8.636;2024-01-30T07:30:23;25.00;;;15.65;;
59434;SDS011;45241;49.768;8.636;2024-01-30T07:32:48;22.00;;;15.77;;
59434;SDS011;45241;49.768;8.636;2024-01-30T07:35:14;23.30;;;15.77;;
59434;SDS011;45241;49.768;8.636;2024-01-30T07:37:40;22.00;;;15.85;;
59434;SDS011;45241;49.768;8.636;2024-01-30T07:40:05;21.42;;;14.90;;
59434;SDS011;45241;49.768;8.636;2024-01-30T07:42:31;21.77;;;14.73;;
59434;SDS011;45241;49.768;8.636;2024-01-30T07:44:57;23.63;;;16.67;;
59434;SDS011;45241;49.768;8.636;2024-01-30T07:47:23;26.33;;;17.63;;
59434;SDS011;45241;49.768;8.636;2024-01-30T07:49:48;23.98;;;17.08;;
59434;SDS011;45241;49.768;8.636;2024-01-30T07:52:13;27.27;;;18.30;;
59434;SDS011;45241;49.768;8.636;2024-01-30T07:54:39;23.30;;;16.55;;
59434;SDS011;45241;49.768;8.636;2024-01-30T07:57:04;26.90;;;17.52;;
59434;SDS011;45241;49.768;8.636;2024-01-30T07:59:29;25.35;;;18.08;;
59434;SDS011;45241;49.768;8.636;2024-01-30T08:01:54;25.10;;;16.65;;
59434;SDS011;45241;49.768;8.636;2024-01-30T08:04:20;24.15;;;16.73;;
59434;SDS011;45241;49.768;8.636;2024-01-30T08:06:45;22.20;;;16.48;;
59434;SDS011;45241;49.768;8.636;2024-01-30T08:09:10;24.05;;;17.33;;
59434;SDS011;45241;49.768;8.636;2024-01-30T08:11:35;24.08;;;16.67;;
59434;SDS011;45241;49.768;8.636;2024-01-30T08:14:01;22.40;;;17.02;;
59434;SDS011;45241;49.768;8.636;2024-01-30T08:16:26;23.83;;;16.92;;
59434;SDS011;45241;49.768;8.636;2024-01-30T08:18:52;25.00;;;15.93;;
59434;SDS011;45241;49.768;8.636;2024-01-30T08:21:18;25.33;;;16.45;;
59434;SDS011;45241;49.768;8.636;2024-01-30T08:23:43;23.38;;;16.73;;
59434;SDS011;45241;49.768;8.636;2024-01-30T08:26:09;22.73;;;16.42;;
59434;SDS011;45241;49.768;8.636;2024-01-30T08:28:34;21.80;;;16.08;;
59434;SDS011;45241;49.768;8.636;2024-01-30T08:30:59;25.52;;;16.70;;
59434;SDS011;45241;49.768;8.636;2024-01-30T08:33:25;24.83;;;16.73;;
59434;SDS011;45241;49.768;8.636;2024-01-30T08:35:50;28.17;;;17.77;;
59434;SDS011;45241;49.768;8.636;2024-01-30T08:38:15;24.35;;;17.25;;
59434;SDS011;45241;49.768;8.636;2024-01-30T08:40:40;28.52;;;17.17;;
59434;SDS011;45241;49.768;8.636;2024-01-30T08:43:06;24.50;;;17.58;;
59434;SDS011;45241;49.768;8.636;2024-01-30T08:45:31;23.60;;;17.00;;
59434;SDS011;45241;49.768;8.636;2024-01-30T08:47:56;25.75;;;16.90;;
59434;SDS011;45241;49.768;8.636;2024-01-30T08:50:22;23.52;;;15.65;;
59434;SDS011;45241;49.768;8.636;2024-01-30T08:52:47;25.00;;;16.13;;
59434;SDS011;45241;49.768;8.636;2024-01-30T08:55:13;27.20;;;17.40;;
59434;SDS011;45241;49.768;8.636;2024-01-30T08:57:38;23.38;;;16.75;;
59434;SDS011;45241;49.768;8.636;2024-01-30T09:00:04;24.00;;;16.63;;
59434;SDS011;45241;49.768;8.636;2024-01-30T09:02:34;24.02;;;16.15;;
59434;SDS011;45241;49.768;8.636;2024-01-30T09:04:59;24.17;;;17.13;;
59434;SDS011;45241;49.768;8.636;2024-01-30T09:07:24;24.40;;;16.83;;
59434;SDS011;45241;49.768;8.636;2024-01-30T09:09:50;22.75;;;15.80;;
59434;SDS011;45241;49.768;8.636;2024-01-30T09:12:15;23.98;;;16.45;;
59434;SDS011;45241;49.768;8.636;2024-01-30T09:14:40;25.63;;;15.90;;
59434;SDS011;45241;49.768;8.636;2024-01-30T09:17:06;23.83;;;15.98;;
59434;SDS011;45241;49.768;8.636;2024-01-30T09:19:31;22.77;;;15.05;;
59434;SDS011;45241;49.768;8.636;2024-01-30T09:21:57;20.42;;;13.95;;
59434;SDS011;45241;49.768;8.636;2024-01-30T09:24:22;19.55;;;12.88;;
59434;SDS011;45241;49.768;8.636;2024-01-30T09:26:48;18.77;;;12.70;;
59434;SDS011;45241;49.768;8.636;2024-01-30T09:29:13;18.05;;;12.38;;
59434;SDS011;45241;49.768;8.636;2024-01-30T09:31:38;18.90;;;13.57;;
59434;SDS011;45241;49.768;8.636;2024-01-30T09:34:03;19.65;;;13.07;;
59434;SDS011;45241;49.768;8.636;2024-01-30T09:36:29;23.67;;;13.75;;
59434;SDS011;45241;49.768;8.636;2024-01-30T09:38:54;25.80;;;15.30;;
59434;SDS011;45241;49.768;8.636;2024-01-30T09:41:19;21.50;;;14.98;;
59434;SDS011;45241;49.768;8.636;2024-01-30T09:43:48;24.52;;;16.17;;
59434;SDS011;45241;49.768;8.636;2024-01-30T09:46:16;25.65;;;17.25;;
59434;SDS011;45241;49.768;8.636;2024-01-30T09:48:43;25.27;;;16.98;;
59434;SDS011;45241;49.768;8.636;2024-01-30T09:51:11;25.77;;;17.60;;
59434;SDS011;45241;49.768;8.636;2024-01-30T09:53:36;23.77;;;17.20;;
59434;SDS011;45241;49.768;8.636;2024-01-30T09:56:02;21.02;;;13.95;;
59434;SDS011;45241;49.768;8.636;2024-01-30T09:58:29;22.08;;;14.82;;
59434;SDS011;45241;49.768;8.636;2024-01-30T10:00:54;17.08;;;12.40;;
59434;SDS011;45241;49.768;8.636;2024-01-30T10:03:19;19.85;;;14.60;;
59434;SDS011;45241;49.768;8.636;2024-01-30T10:05:49;19.10;;;13.18;;
59434;SDS011;45241;49.768;8.636;2024-01-30T10:08:17;18.08;;;11.80;;
59434;SDS011;45241;49.768;8.636;2024-01-30T10:10:45;15.82;;;10.90;;
59434;SDS011;45241;49.768;8.636;2024-01-30T10:13:11;18.17;;;11.90;;
59434;SDS011;45241;49.768;8.636;2024-01-30T10:15:37;17.33;;;10.88;;
59434;SDS011;45241;49.768;8.636;2024-01-30T10:18:03;15.27;;;9.10;;
59434;SDS011;45241;49.768;8.636;2024-01-30T10:20:33;12.73;;;9.15;;
59434;SDS011;45241;49.768;8.636;2024-01-30T10:22:59;14.77;;;9.25;;
59434;SDS011;45241;49.768;8.636;2024-01-30T10:25:25;14.75;;;8.68;;
59434;SDS011;45241;49.768;8.636;2024-01-30T10:27:54;14.00;;;8.50;;
59434;SDS011;45241;49.768;8.636;2024-01-30T10:30:20;13.00;;;8.03;;
59434;SDS011;45241;49.768;8.636;2024-01-30T10:32:49;11.73;;;7.82;;
59434;SDS011;45241;49.768;8.636;2024-01-30T10:35:15;13.63;;;7.68;;
59434;SDS011;45241;49.768;8.636;2024-01-30T10:37:41;11.73;;;7.30;;
59434;SDS011;45241;49.768;8.636;2024-01-30T10:40:08;12.40;;;7.60;;
59434;SDS011;45241;49.768;8.636;2024-01-30T10:42:37;10.98;;;7.35;;
59434;SDS011;45241;49.768;8.636;2024-01-30T10:45:08;13.18;;;7.85;;
59434;SDS011;45241;49.768;8.636;2024-01-30T10:47:35;11.40;;;7.25;;
59434;SDS011;45241;49.768;8.636;2024-01-30T10:50:01;10.40;;;7.25;;
59434;SDS011;45241;49.768;8.636;2024-01-30T10:52:28;11.38;;;7.68;;
59434;SDS011;45241;49.768;8.636;2024-01-30T10:54:55;10.55;;;7.05;;
59434;SDS011;45241;49.768;8.636;2024-01-30T10:57:23;12.10;;;7.43;;
59434;SDS011;45241;49.768;8.636;2024-01-30T10:59:50;10.80;;;7.07;;
59434;SDS011;45241;49.768;8.636;2024-01-30T11:02:18;11.27;;;7.93;;
59434;SDS011;45241;49.768;8.636;2024-01-30T11:04:45;13.15;;;7.30;;
59434;SDS011;45241;49.768;8.636;2024-01-30T11:07:14;9.35;;;7.03;;
59434;SDS011;45241;49.768;8.636;2024-01-30T11:09:47;10.95;;;6.82;;
59434;SDS011;45241;49.768;8.636;2024-01-30T11:12:14;10.25;;;6.95;;
59434;SDS011;45241;49.768;8.636;2024-01-30T11:14:39;10.32;;;7.10;;
59434;SDS011;45241;49.768;8.636;2024-01-30T11:17:05;13.77;;;7.15;;
59434;SDS011;45241;49.768;8.636;2024-01-30T11:19:30;11.15;;;7.05;;
59434;SDS011;45241;49.768;8.636;2024-01-30T11:21:56;12.73;;;7.35;;
59434;SDS011;45241;49.768;8.636;2024-01-30T11:24:22;11.27;;;7.47;;
59434;SDS011;45241;49.768;8.636;2024-01-30T11:26:58;11.38;;;7.50;;
59434;SDS011;45241;49.768;8.636;2024-01-30T11:29:27;11.18;;;7.30;;
59434;SDS011;45241;49.768;8.636;2024-01-30T11:31:53;10.57;;;7.22;;
59434;SDS011;45241;49.768;8.636;2024-01-30T11:34:20;12.68;;;8.13;;
59434;SDS011;45241;49.768;8.636;2024-01-30T11:36:46;13.07;;;8.20;;
59434;SDS011;45241;49.768;8.636;2024-01-30T11:39:17;14.10;;;8.10;;
59434;SDS011;45241;49.768;8.636;2024-01-30T11:41:45;14.50;;;8.27;;
59434;SDS011;45241;49.768;8.636;2024-01-30T11:44:11;11.13;;;7.57;;
59434;SDS011;45241;49.768;8.636;2024-01-30T11:46:36;8.95;;;7.20;;
59434;SDS011;45241;49.768;8.636;2024-01-30T11:49:01;11.52;;;7.15;;
59434;SDS011;45241;49.768;8.636;2024-01-30T11:51:27;14.15;;;7.57;;
59434;SDS011;45241;49.768;8.636;2024-01-30T11:53:53;12.15;;;7.88;;
59434;SDS011;45241;49.768;8.636;2024-01-30T11:56:18;13.40;;;7.82;;
59434;SDS011;45241;49.768;8.636;2024-01-30T11:58:43;10.45;;;7.43;;
59434;SDS011;45241;49.768;8.636;2024-01-30T12:01:09;12.25;;;7.30;;
59434;SDS011;45241;49.768;8.636;2024-01-30T12:03:35;10.77;;;7.43;;
59434;SDS011;45241;49.768;8.636;2024-01-30T12:06:02;11.35;;;7.25;;
59434;SDS011;45241;49.768;8.636;2024-01-30T12:08:28;11.55;;;6.78;;
59434;SDS011;45241;49.768;8.636;2024-01-30T12:10:56;11.38;;;6.70;;
59434;SDS011;45241;49.768;8.636;2024-01-30T12:13:23;13.15;;;6.47;;
59434;SDS011;45241;49.768;8.636;2024-01-30T12:15:50;8.88;;;6.07;;
59434;SDS011;45241;49.768;8.636;2024-01-30T12:18:18;9.18;;;6.05;;
59434;SDS011;45241;49.768;8.636;2024-01-30T12:20:43;9.35;;;6.18;;
59434;SDS011;45241;49.768;8.636;2024-01-30T12:23:09;10.07;;;6.60;;
59434;SDS011;45241;49.768;8.636;2024-01-30T12:25:37;8.05;;;5.63;;
59434;SDS011;45241;49.768;8.636;2024-01-30T12:28:02;8.48;;;5.93;;
59434;SDS011;45241;49.768;8.636;2024-01-30T12:30:28;11.07;;;6.15;;
59434;SDS011;45241;49.768;8.636;2024-01-30T12:32:54;8.88;;;6.10;;
59434;SDS011;45241;49.768;8.636;2024-01-30T12:35:19;9.60;;;6.38;;
59434;SDS011;45241;49.768;8.636;2024-01-30T12:37:45;12.38;;;6.75;;
59434;SDS011;45241;49.768;8.636;2024-01-30T12:40:13;11.15;;;7.32;;
59434;SDS011;45241;49.768;8.636;2024-01-30T12:42:39;12.23;;;7.30;;
59434;SDS011;45241;49.768;8.636;2024-01-30T12:45:06;9.43;;;6.50;;
59434;SDS011;45241;49.768;8.636;2024-01-30T12:47:32;11.48;;;6.63;;
59434;SDS011;45241;49.768;8.636;2024-01-30T12:49:58;9.43;;;6.55;;
59434;SDS011;45241;49.768;8.636;2024-01-30T12:52:23;10.88;;;7.20;;
59434;SDS011;45241;49.768;8.636;2024-01-30T12:54:49;10.00;;;6.63;;
59434;SDS011;45241;49.768;8.636;2024-01-30T12:57:15;10.73;;;7.28;;
59434;SDS011;45241;49.768;8.636;2024-01-30T12:59:41;11.68;;;6.90;;
59434;SDS011;45241;49.768;8.636;2024-01-30T13:02:06;10.13;;;7.20;;
59434;SDS011;45241;49.768;8.636;2024-01-30T13:04:31;12.30;;;8.13;;
59434;SDS011;45241;49.768;8.636;2024-01-30T13:06:57;11.00;;;6.63;;
59434;SDS011;45241;49.768;8.636;2024-01-30T13:09:23;11.57;;;7.45;;
59434;SDS011;45241;49.768;8.636;2024-01-30T13:11:49;10.23;;;7.55;;
59434;SDS011;45241;49.768;8.636;2024-01-30T13:14:16;9.85;;;7.55;;
59434;SDS011;45241;49.768;8.636;2024-01-30T13:16:41;11.20;;;8.15;;
59434;SDS011;45241;49.768;8.636;2024-01-30T13:19:06;13.65;;;7.40;;
59434;SDS011;45241;49.768;8.636;2024-01-30T13:21:32;11.35;;;7.53;;
59434;SDS011;45241;49.768;8.636;2024-01-30T13:23:57;12.68;;;7.18;;
59434;SDS011;45241;49.768;8.636;2024-01-30T13:26:22;10.05;;;6.75;;
59434;SDS011;45241;49.768;8.636;2024-01-30T13:28:48;14.57;;;7.50;;
59434;SDS011;45241;49.768;8.636;2024-01-30T13:31:16;11.32;;;6.90;;
59434;SDS011;45241;49.768;8.636;2024-01-30T13:33:41;13.57;;;7.10;;
59434;SDS011;45241;49.768;8.636;2024-01-30T13:36:08;10.60;;;7.03;;
59434;SDS011;45241;49.768;8.636;2024-01-30T13:38:35;12.48;;;6.90;;
59434;SDS011;45241;49.768;8.636;2024-01-30T13:41:00;12.23;;;7.18;;
59434;SDS011;45241;49.768;8.636;2024-01-30T13:43:26;10.43;;;6.57;;
59434;SDS011;45241;49.768;8.636;2024-01-30T13:45:51;13.57;;;6.68;;
59434;SDS011;45241;49.768;8.636;2024-01-30T13:48:17;10.13;;;6.50;;
59434;SDS011;45241;49.768;8.636;2024-01-30T13:50:42;10.52;;;6.68;;
59434;SDS011;45241;49.768;8.636;2024-01-30T13:53:08;10.27;;;6.65;;
59434;SDS011;45241;49.768;8.636;2024-01-30T13:55:33;12.23;;;6.72;;
59434;SDS011;45241;49.768;8.636;2024-01-30T13:57:59;9.70;;;7.10;;
59434;SDS011;45241;49.768;8.636;2024-01-30T14:00:26;12.45;;;6.47;;
59434;SDS011;45241;49.768;8.636;2024-01-30T14:02:51;12.95;;;6.57;;
59434;SDS011;45241;49.768;8.636;2024-01-30T14:05:19;8.80;;;5.80;;
59434;SDS011;45241;49.768;8.636;2024-01-30T14:07:46;10.82;;;6.28;;
59434;SDS011;45241;49.768;8.636;2024-01-30T14:10:11;11.50;;;6.00;;
59434;SDS011;45241;49.768;8.636;2024-01-30T14:12:37;9.45;;;6.00;;
59434;SDS011;45241;49.768;8.636;2024-01-30T14:15:02;9.73;;;6.32;;
59434;SDS011;45241;49.768;8.636;2024-01-30T14:17:27;8.68;;;6.25;;